Карточка аэропорта USSS

Внимание!
Информация на этой странице в стадии наполнения.
Если вы не увидели какой-то информации, или заметили неточность - пожалуйста сообщите нам!
Спасибо!
Команда RU-STAFF
Название аэропортаКольцово
Название аэропорта (англ.)Koltsovo
Превышение766 ft. (233.5 m.)
Координаты56°44.586', 60°48.186'
Высота перехода4000ft
Эшелон переходаQNH>=1013hPa:FL50; QNH 1013hPa-977hPa:FL60; QNH<=977hpa:FL70
Коды ответчика5520-5557
Зона ОрВДЕкатеринбург РПИ (USSV)
Данные METARUSSS 121530Z 35006MPS 9000 -SHRA OVC003CB 16/16 Q1009 R26R/220050 NOSIG RMK QFE736/0982
Проноз погоды (TAF)USSS 121451Z 1215/1315 36003G14MPS 6000 -SHRA BKN006CB TEMPO 1215/1302 -TSRA BKN003 BKN011CB BECMG 1303/1306 9999 NSW BKN016CB BECMG 1306/1309 02008G15MPS
NOTAMshow/hide NOTAM
AWOS   TABLE

Информация о ВПП

ВПП Длина ВПП (м.) Покрытие Курс ВПП Частота ILS
08R3026Бетон79109.9
26L3026Бетон259109.5
08L3004Асфальтобетон75111.7
26R3004Асфальтобетон255110.5

Диспетчерские позиции

Позывной Наименование органа УВД Частота
USSS_ATIS_APPКольцово АТИС127.850
USSV_FSS_CTRКольцово Транзит131.900
USSS_R_APPКольцово-Круг118.7
USSS_APPКольцово-Подход125.9
USSS_GNDКольцово-Руление119.0
USSS_TWRКольцово-Старт124.3
USSSFM1Машина сопровождения119.000



Спутниковое изображение